Time;durP1;ratioP1;P1;durP2;ratioP2;P2;SDS_P1;SDS_P2;PMS_P1;PMS_P2;Temp;Humidity;BMP_temperature;BMP_pressure;BME280_temperature;BME280_humidity;BME280_pressure;Samples;Min_cycle;Max_cycle;Signal;HPM_P1;HPM_P2
2023/05/03 00:01:36;;;;;;;7.93;4.78;;;;;;;18.80;45.72;103102.59;5033507;28;20049;-35
2023/05/03 00:04:02;;;;;;;8.55;4.80;;;;;;;18.78;45.91;103107.25;5015551;28;20059;-35
2023/05/03 00:06:30;;;;;;;7.80;4.75;;;;;;;18.78;46.67;103099.19;5010633;28;20057;-35
2023/05/03 00:08:57;;;;;;;7.93;4.28;;;;;;;18.77;45.91;103105.50;5016992;28;20487;-35
2023/05/03 00:11:23;;;;;;;8.43;5.20;;;;;;;18.76;46.16;103101.09;5015445;28;20057;-37
2023/05/03 00:13:50;;;;;;;9.45;4.97;;;;;;;18.74;46.07;103102.06;5016217;28;20049;-35
2023/05/03 00:16:17;;;;;;;7.43;4.30;;;;;;;18.74;46.13;103107.44;5015749;28;20144;-35
2023/05/03 00:18:44;;;;;;;8.00;4.30;;;;;;;18.73;45.96;103097.66;5019428;28;20404;-36
2023/05/03 00:21:13;;;;;;;7.13;4.40;;;;;;;18.73;46.40;103102.16;5014107;28;20057;-36
2023/05/03 00:23:39;;;;;;;7.45;4.70;;;;;;;18.72;46.35;103101.28;5018261;28;20053;-35
2023/05/03 00:26:06;;;;;;;6.65;4.10;;;;;;;18.71;46.54;103098.72;5015478;28;20139;-36
2023/05/03 00:28:32;;;;;;;7.65;4.68;;;;;;;18.69;46.11;103090.75;5015402;28;20269;-35
2023/05/03 00:31:07;;;;;;;6.72;3.97;;;;;;;18.68;46.26;103088.13;5017906;28;20057;-37
2023/05/03 00:33:34;;;;;;;7.32;4.20;;;;;;;18.68;45.98;103098.88;5014303;28;20326;-35
2023/05/03 00:36:11;;;;;;;8.85;4.20;;;;;;;18.66;45.88;103100.81;5015172;28;20056;-36
2023/05/03 00:38:39;;;;;;;8.10;4.60;;;;;;;18.65;45.90;103105.34;5016086;28;20053;-35
2023/05/03 00:41:09;;;;;;;8.10;4.22;;;;;;;18.64;45.84;103100.06;5013940;28;20096;-35
2023/05/03 00:43:36;;;;;;;7.65;4.03;;;;;;;18.63;46.22;103101.88;5013740;28;20437;-35
2023/05/03 00:46:05;;;;;;;7.50;4.25;;;;;;;18.61;46.15;103098.41;5015401;28;20141;-34
2023/05/03 00:48:45;;;;;;;6.88;3.47;;;;;;;18.61;46.06;103095.72;5016068;28;20433;-34
2023/05/03 00:51:13;;;;;;;6.70;3.40;;;;;;;18.61;45.53;103105.63;5019334;28;20053;-34
2023/05/03 00:53:41;;;;;;;6.82;4.15;;;;;;;18.60;46.35;103106.59;5014676;28;20056;-34
2023/05/03 00:56:08;;;;;;;8.05;3.95;;;;;;;18.58;45.98;103093.28;5012576;28;20472;-35
2023/05/03 00:58:38;;;;;;;5.93;3.40;;;;;;;18.58;46.02;103095.97;5018825;28;20053;-34
2023/05/03 01:01:08;;;;;;;5.43;3.38;;;;;;;18.56;46.39;103099.72;5016112;28;20369;-35
2023/05/03 01:03:40;;;;;;;5.07;3.58;;;;;;;18.55;45.75;103101.53;5013002;28;20053;-35
2023/05/03 01:06:18;;;;;;;6.28;4.00;;;;;;;18.54;46.31;103098.97;5018649;28;20500;-35
2023/05/03 01:09:00;;;;;;;6.22;3.60;;;;;;;18.52;46.15;103099.03;5015212;28;20435;-35
2023/05/03 01:11:42;;;;;;;7.63;3.78;;;;;;;18.50;46.23;103101.84;5016744;28;20053;-35
2023/05/03 01:14:21;;;;;;;7.00;3.85;;;;;;;18.50;46.00;103101.00;5024102;28;20132;-35
2023/05/03 01:16:55;;;;;;;5.35;2.95;;;;;;;18.49;46.49;103094.75;5020053;28;20053;-34
2023/05/03 01:19:32;;;;;;;5.80;3.53;;;;;;;18.49;46.39;103096.56;5021634;28;20042;-35
2023/05/03 01:22:13;;;;;;;7.45;3.58;;;;;;;18.48;46.06;103092.16;5022363;28;20080;-34
2023/05/03 01:24:41;;;;;;;6.63;3.53;;;;;;;18.47;45.92;103093.97;5019834;28;20050;-34
2023/05/03 01:27:08;;;;;;;5.93;3.78;;;;;;;18.44;46.00;103091.50;5022823;28;20386;-35
2023/05/03 01:29:35;;;;;;;6.38;3.38;;;;;;;18.43;46.20;103094.28;5028405;28;20137;-34
2023/05/03 01:32:05;;;;;;;6.30;3.20;;;;;;;18.43;46.15;103105.03;5023544;28;20045;-35
2023/05/03 01:34:39;;;;;;;5.60;3.28;;;;;;;18.40;45.99;103098.03;5022530;28;20045;-34
2023/05/03 01:37:09;;;;;;;5.43;3.50;;;;;;;18.39;45.91;103096.31;5028974;28;20059;-35
2023/05/03 01:39:50;;;;;;;5.45;3.25;;;;;;;18.39;46.45;103103.50;5024162;28;20057;-35
2023/05/03 01:42:19;;;;;;;5.72;2.80;;;;;;;18.38;46.29;103091.91;5021938;28;20049;-34
2023/05/03 01:44:48;;;;;;;6.30;3.00;;;;;;;18.37;46.62;103086.63;5023493;28;20050;-35
2023/05/03 01:47:15;;;;;;;5.03;3.05;;;;;;;18.36;46.35;103093.81;5027687;28;20079;-36
2023/05/03 01:49:41;;;;;;;3.88;2.45;;;;;;;18.36;46.09;103090.28;5018323;28;20079;-35
2023/05/03 01:52:08;;;;;;;4.55;3.10;;;;;;;18.35;46.57;103093.94;5010844;28;20089;-34
2023/05/03 01:54:35;;;;;;;5.25;3.00;;;;;;;18.34;46.55;103093.06;5014473;28;20060;-34
2023/05/03 01:57:01;;;;;;;4.53;2.70;;;;;;;18.33;46.52;103090.47;5018875;28;20051;-34
2023/05/03 01:59:28;;;;;;;5.32;2.80;;;;;;;18.32;46.13;103080.72;5014437;28;20047;-35
2023/05/03 02:01:55;;;;;;;3.90;2.78;;;;;;;18.30;46.43;103080.81;5013863;28;20054;-35
2023/05/03 02:04:21;;;;;;;4.40;2.72;;;;;;;18.29;46.21;103079.09;5015327;28;20050;-35
2023/05/03 02:06:48;;;;;;;5.82;3.10;;;;;;;18.29;46.20;103075.53;5014401;28;20049;-35
2023/05/03 02:09:15;;;;;;;4.15;2.88;;;;;;;18.27;46.64;103070.28;5015270;28;20052;-34
2023/05/03 02:11:42;;;;;;;5.35;3.15;;;;;;;18.26;46.07;103068.56;5016217;28;20684;-35
2023/05/03 02:14:09;;;;;;;3.95;2.38;;;;;;;18.25;46.41;103059.66;5011871;28;20460;-35
2023/05/03 02:16:35;;;;;;;3.22;2.28;;;;;;;18.23;46.59;103066.94;5011900;28;20041;-37
2023/05/03 02:19:02;;;;;;;4.53;2.65;;;;;;;18.22;46.33;103051.78;5015790;28;20041;-34
2023/05/03 02:21:30;;;;;;;6.55;2.88;;;;;;;18.21;46.48;103044.72;5012427;28;20053;-36
2023/05/03 02:23:56;;;;;;;6.30;2.83;;;;;;;18.21;46.34;103041.13;5015545;28;20054;-34
2023/05/03 02:26:23;;;;;;;9.10;2.83;;;;;;;18.18;46.12;103034.16;5016893;28;20049;-35
2023/05/03 02:28:50;;;;;;;5.75;3.20;;;;;;;18.17;46.33;103029.78;5013584;28;20142;-35
2023/05/03 02:31:16;;;;;;;4.20;2.67;;;;;;;18.16;46.11;103030.72;5013869;28;20196;-36
2023/05/03 02:33:43;;;;;;;4.70;2.72;;;;;;;18.15;46.68;103026.31;5016769;28;20045;-35
2023/05/03 02:36:10;;;;;;;4.22;2.80;;;;;;;18.14;46.43;103026.41;5013592;28;20060;-36
2023/05/03 02:38:36;;;;;;;4.07;2.70;;;;;;;18.12;46.07;103031.00;5018215;28;20503;-35
2023/05/03 02:41:03;;;;;;;5.03;2.30;;;;;;;18.11;46.49;103045.41;5014326;28;20319;-35
2023/05/03 02:43:29;;;;;;;4.47;2.45;;;;;;;18.10;46.61;103051.75;5016809;28;20049;-35
2023/05/03 02:45:56;;;;;;;4.32;2.30;;;;;;;18.09;46.56;103055.34;5014762;28;20064;-36
2023/05/03 02:48:23;;;;;;;3.58;2.20;;;;;;;18.07;46.54;103063.53;5016325;28;20059;-35
2023/05/03 02:50:49;;;;;;;4.00;2.40;;;;;;;18.05;46.46;103065.47;5012371;28;20050;-37
2023/05/03 02:53:16;;;;;;;3.45;2.25;;;;;;;18.06;46.69;103063.63;5013216;28;20049;-36
2023/05/03 02:55:42;;;;;;;3.03;2.20;;;;;;;18.04;46.47;103065.53;5018176;28;20063;-36
2023/05/03 02:58:09;;;;;;;4.88;2.85;;;;;;;18.03;46.88;103075.41;5013927;28;20711;-36
2023/05/03 03:00:36;;;;;;;3.22;2.20;;;;;;;18.02;46.52;103072.84;5013458;28;20045;-36
2023/05/03 03:03:02;;;;;;;3.60;2.05;;;;;;;18.02;46.16;103071.03;5013924;28;20045;-37
2023/05/03 03:05:29;;;;;;;3.85;2.03;;;;;;;18.00;46.48;103072.94;5010854;28;20460;-35
2023/05/03 03:07:56;;;;;;;5.47;2.10;;;;;;;17.99;46.46;103069.38;5011923;28;20077;-36
2023/05/03 03:10:22;;;;;;;3.13;2.33;;;;;;;17.98;46.37;103065.00;5019940;28;20053;-37
2023/05/03 03:12:49;;;;;;;3.65;2.20;;;;;;;17.98;46.44;103069.50;5019936;28;20053;-37
2023/05/03 03:15:16;;;;;;;3.75;1.90;;;;;;;17.97;46.39;103067.78;5020402;28;20352;-37
2023/05/03 03:17:42;;;;;;;3.85;2.30;;;;;;;17.96;46.35;103061.53;5016611;28;20352;-37
2023/05/03 03:20:12;;;;;;;3.33;2.13;;;;;;;17.94;46.79;103066.16;5017251;28;20050;-37
2023/05/03 03:22:39;;;;;;;3.83;2.17;;;;;;;17.94;46.24;103066.16;5018254;28;20107;-36
2023/05/03 03:25:06;;;;;;;3.65;2.08;;;;;;;17.94;46.64;103059.91;5024905;28;20100;-34
2023/05/03 03:27:33;;;;;;;3.78;2.53;;;;;;;17.93;46.50;103064.44;5029554;28;20057;-34
2023/05/03 03:29:59;;;;;;;4.13;1.95;;;;;;;17.92;46.54;103073.41;5029545;28;20429;-34
2023/05/03 03:32:27;;;;;;;4.90;2.03;;;;;;;17.93;46.38;103075.16;5028958;28;20139;-34
2023/05/03 03:34:53;;;;;;;3.15;2.20;;;;;;;17.91;46.62;103073.53;5029931;28;20132;-34
2023/05/03 03:37:22;;;;;;;3.67;2.10;;;;;;;17.92;46.78;103077.91;5028101;28;20053;-34
2023/05/03 03:39:48;;;;;;;3.13;2.00;;;;;;;17.91;46.75;103073.53;5026655;28;20049;-34
2023/05/03 03:42:15;;;;;;;4.53;2.60;;;;;;;17.91;46.58;103076.22;5029729;28;20049;-34
2023/05/03 03:44:43;;;;;;;4.13;2.00;;;;;;;17.90;46.45;103080.72;5024949;28;20049;-35
2023/05/03 03:47:10;;;;;;;3.30;1.90;;;;;;;17.89;46.62;103064.69;5022569;28;20067;-34
2023/05/03 03:49:36;;;;;;;3.50;2.08;;;;;;;17.97;46.60;103075.84;5025488;28;20045;-35
2023/05/03 03:52:03;;;;;;;3.63;2.10;;;;;;;18.04;46.45;103073.59;5021980;28;20449;-34
2023/05/03 03:54:30;;;;;;;4.05;2.20;;;;;;;18.11;46.49;103075.78;5018796;28;20049;-34
2023/05/03 03:56:57;;;;;;;2.08;1.63;;;;;;;18.20;46.66;103077.00;5017138;28;20060;-35
2023/05/03 03:59:23;;;;;;;4.05;1.83;;;;;;;18.28;46.37;103081.88;5018030;28;20508;-34
2023/05/03 04:01:50;;;;;;;3.13;1.88;;;;;;;18.36;46.12;103071.47;5022148;28;20045;-34
2023/05/03 04:04:17;;;;;;;5.82;2.30;;;;;;;18.43;45.74;103078.19;5021395;28;20045;-34
2023/05/03 04:06:43;;;;;;;3.05;1.63;;;;;;;18.48;45.70;103079.59;5025874;28;20045;-35
2023/05/03 04:09:10;;;;;;;4.50;2.03;;;;;;;18.54;45.59;103083.69;5019532;28;20137;-35
2023/05/03 04:11:37;;;;;;;3.55;2.00;;;;;;;18.59;45.13;103081.56;5018692;28;20051;-34
2023/05/03 04:14:03;;;;;;;5.95;2.42;;;;;;;18.61;44.97;103086.81;5021303;28;20050;-35
2023/05/03 04:16:30;;;;;;;2.75;1.63;;;;;;;18.66;44.69;103090.94;5026647;28;20477;-34
2023/05/03 04:18:57;;;;;;;4.45;2.08;;;;;;;18.67;44.99;103094.47;5024354;28;20052;-35
2023/05/03 04:21:23;;;;;;;3.90;1.80;;;;;;;18.70;45.69;103097.88;5026223;28;20068;-35
2023/05/03 04:23:50;;;;;;;3.58;1.98;;;;;;;18.72;44.86;103111.19;5029981;28;20058;-34
2023/05/03 04:26:16;;;;;;;3.55;1.80;;;;;;;18.72;45.11;103111.19;5026534;28;20453;-35
2023/05/03 04:28:57;;;;;;;4.50;1.95;;;;;;;18.73;45.05;103113.78;5025414;28;20041;-34
2023/05/03 04:31:24;;;;;;;3.92;1.83;;;;;;;18.74;44.84;103120.88;5022108;28;20046;-35
2023/05/03 04:33:51;;;;;;;2.88;1.65;;;;;;;18.75;44.69;103124.41;5022371;28;20108;-34
2023/05/03 04:36:17;;;;;;;3.08;1.60;;;;;;;18.76;44.80;103127.97;5025024;28;20057;-35
2023/05/03 04:38:44;;;;;;;3.25;1.83;;;;;;;18.77;44.92;103117.09;5025158;28;20083;-36
2023/05/03 04:41:11;;;;;;;4.18;2.00;;;;;;;18.78;44.50;103120.66;5026071;28;20089;-34
2023/05/03 04:43:41;;;;;;;3.88;1.90;;;;;;;18.78;44.32;103120.66;5024316;28;20053;-35
2023/05/03 04:46:08;;;;;;;2.28;1.52;;;;;;;18.76;44.58;103123.44;5024290;28;20080;-35
2023/05/03 04:48:35;;;;;;;3.08;1.80;;;;;;;18.74;44.72;103118.19;5023285;28;20058;-35
2023/05/03 04:51:02;;;;;;;3.13;1.52;;;;;;;18.71;44.20;103121.06;5024909;28;20049;-35
2023/05/03 04:53:28;;;;;;;2.65;1.55;;;;;;;18.67;44.63;103114.16;5024017;28;20046;-35
2023/05/03 04:55:55;;;;;;;2.33;1.45;;;;;;;18.65;44.76;103115.19;5020954;28;20053;-35
2023/05/03 04:58:21;;;;;;;2.50;1.52;;;;;;;18.60;44.52;103110.13;5023084;28;20045;-35
2023/05/03 05:00:48;;;;;;;2.80;1.50;;;;;;;18.57;44.73;103114.84;5040314;28;20054;-35
2023/05/03 05:03:15;;;;;;;2.28;1.50;;;;;;;18.54;45.05;103113.25;5026535;28;20050;-35
2023/05/03 05:05:42;;;;;;;3.00;1.27;;;;;;;18.50;44.93;103119.78;5024083;28;20050;-36
2023/05/03 05:08:08;;;;;;;2.88;1.60;;;;;;;18.50;45.04;103119.78;5027319;28;20049;-35
2023/05/03 05:10:41;;;;;;;3.40;1.27;;;;;;;18.48;45.14;103121.69;5024109;28;20050;-35
2023/05/03 05:13:08;;;;;;;2.43;1.60;;;;;;;18.48;45.31;103119.88;5021320;28;20140;-35
2023/05/03 05:15:34;;;;;;;2.63;1.60;;;;;;;18.48;45.07;103129.75;5025903;28;20315;-35
2023/05/03 05:18:01;;;;;;;2.10;1.40;;;;;;;18.48;45.18;103130.59;5026918;28;20041;-34
2023/05/03 05:20:27;;;;;;;2.72;1.40;;;;;;;18.49;45.65;103134.16;5022956;28;20045;-35
2023/05/03 05:22:54;;;;;;;2.33;1.20;;;;;;;18.49;45.34;103129.66;5024966;28;20302;-36
2023/05/03 05:25:21;;;;;;;3.40;1.48;;;;;;;18.52;45.26;103133.09;5025178;28;20056;-34
2023/05/03 05:27:47;;;;;;;2.85;1.45;;;;;;;18.54;45.52;103124.00;5024296;28;20041;-35
2023/05/03 05:30:14;;;;;;;2.03;1.30;;;;;;;18.57;45.46;103123.75;5021707;28;20137;-34
2023/05/03 05:32:41;;;;;;;3.38;1.40;;;;;;;18.60;45.42;103120.03;5020023;28;20049;-36
2023/05/03 05:35:08;;;;;;;3.05;1.80;;;;;;;18.63;45.18;103118.00;5022445;28;20170;-37
2023/05/03 05:37:35;;;;;;;3.15;1.58;;;;;;;18.67;45.23;103129.41;5024843;28;20054;-36
2023/05/03 05:40:01;;;;;;;2.35;1.20;;;;;;;18.69;44.83;103132.84;5024991;28;20072;-38
2023/05/03 05:42:28;;;;;;;2.58;1.60;;;;;;;18.71;45.09;103131.81;5022746;28;20056;-34
2023/05/03 05:44:56;;;;;;;3.75;1.65;;;;;;;18.73;44.96;103129.00;5023137;28;20525;-35
2023/05/03 05:47:22;;;;;;;1.88;1.30;;;;;;;18.74;44.83;103126.25;5022291;28;20081;-35
2023/05/03 05:49:49;;;;;;;4.20;1.80;;;;;;;18.77;44.89;103140.41;5017663;28;20079;-36
2023/05/03 05:52:16;;;;;;;3.17;1.65;;;;;;;18.77;44.53;103140.41;5018644;28;20057;-34
2023/05/03 05:54:42;;;;;;;2.40;1.50;;;;;;;18.78;44.64;103137.66;5022126;28;20449;-35
2023/05/03 05:57:09;;;;;;;3.20;1.55;;;;;;;18.79;44.92;103139.38;5019737;28;20049;-35
2023/05/03 05:59:36;;;;;;;4.53;1.58;;;;;;;18.81;44.17;103144.63;5022135;28;20244;-35
2023/05/03 06:02:02;;;;;;;1.88;1.17;;;;;;;18.80;44.62;103141.06;5023220;28;20056;-35
2023/05/03 06:04:29;;;;;;;3.17;1.48;;;;;;;18.83;45.11;103148.09;5020875;28;20429;-35
2023/05/03 06:06:56;;;;;;;1.85;1.45;;;;;;;18.82;44.56;103146.38;5026752;28;20076;-36
2023/05/03 06:09:22;;;;;;;2.35;1.60;;;;;;;18.83;44.71;103150.78;5024180;28;20374;-35
2023/05/03 06:11:50;;;;;;;2.92;1.48;;;;;;;18.84;44.67;103144.41;5025431;28;20049;-35
2023/05/03 06:14:19;;;;;;;2.17;1.27;;;;;;;18.85;44.65;103148.81;5019069;28;20053;-35
2023/05/03 06:16:46;;;;;;;2.13;1.30;;;;;;;18.86;44.26;103148.75;5023124;28;20077;-34
2023/05/03 06:19:13;;;;;;;2.75;1.30;;;;;;;18.87;44.63;103142.41;5021319;28;20392;-35
2023/05/03 06:21:39;;;;;;;2.30;1.40;;;;;;;18.90;44.55;103146.72;5024217;28;20091;-35
2023/05/03 06:24:06;;;;;;;2.22;1.52;;;;;;;18.92;44.45;103142.09;5025695;28;20380;-35
2023/05/03 06:26:32;;;;;;;3.67;1.27;;;;;;;18.93;44.55;103141.97;5023243;28;20049;-35
2023/05/03 06:28:59;;;;;;;2.50;1.48;;;;;;;18.95;44.57;103140.06;5024333;28;20053;-35
2023/05/03 06:31:26;;;;;;;2.25;1.30;;;;;;;18.97;44.32;103143.50;5019998;28;20441;-34
2023/05/03 06:33:53;;;;;;;2.90;1.70;;;;;;;18.99;43.91;103138.88;5024187;28;20053;-35
2023/05/03 06:36:19;;;;;;;1.90;1.25;;;;;;;18.99;43.99;103138.88;5024947;28;20081;-35
2023/05/03 06:38:46;;;;;;;1.88;1.48;;;;;;;19.02;43.84;103139.66;5022033;28;20053;-36
2023/05/03 06:41:12;;;;;;;2.90;1.40;;;;;;;19.02;43.75;103136.97;5021339;28;20088;-34
2023/05/03 06:43:39;;;;;;;4.40;1.17;;;;;;;19.02;43.71;103140.50;5019870;28;20149;-35
2023/05/03 06:46:06;;;;;;;2.35;1.50;;;;;;;19.02;43.59;103132.44;5016800;28;20145;-35
2023/05/03 06:48:32;;;;;;;1.92;1.30;;;;;;;19.02;43.93;103134.28;5018684;28;20046;-34
2023/05/03 06:50:59;;;;;;;2.42;1.35;;;;;;;19.03;43.50;103130.63;5019552;28;20045;-35
2023/05/03 06:53:26;;;;;;;3.45;1.50;;;;;;;19.02;43.94;103132.44;5023000;28;20100;-35
2023/05/03 06:55:52;;;;;;;2.00;1.25;;;;;;;19.02;43.62;103123.53;5021226;28;20052;-35
2023/05/03 06:58:19;;;;;;;2.20;1.30;;;;;;;19.01;43.54;103119.09;5019892;28;20057;-35
2023/05/03 07:00:45;;;;;;;2.05;1.30;;;;;;;18.99;43.12;103125.44;5018762;28;20334;-35
2023/05/03 07:03:12;;;;;;;3.63;1.58;;;;;;;18.98;43.60;103122.88;5022899;28;20073;-35
2023/05/03 07:05:39;;;;;;;3.08;1.55;;;;;;;18.96;43.40;103112.19;5019528;28;20101;-34
2023/05/03 07:08:06;;;;;;;3.58;1.30;;;;;;;18.94;43.34;103108.78;5021701;28;20342;-35
2023/05/03 07:10:33;;;;;;;2.88;1.48;;;;;;;18.93;43.12;103111.53;5024222;28;20077;-34
2023/05/03 07:12:59;;;;;;;2.20;1.38;;;;;;;18.91;43.26;103111.66;5016596;28;21133;-34
2023/05/03 07:15:26;;;;;;;2.65;1.48;;;;;;;18.89;43.53;103107.34;5024222;28;20621;-35
2023/05/03 07:17:53;;;;;;;2.20;1.30;;;;;;;18.88;43.01;103105.63;5018812;28;20057;-34
2023/05/03 07:20:20;;;;;;;2.88;1.60;;;;;;;18.87;43.42;103103.91;5022526;28;20605;-35
2023/05/03 07:22:47;;;;;;;2.67;1.40;;;;;;;18.86;43.68;103096.84;5032486;28;20066;-34
2023/05/03 07:25:16;;;;;;;4.00;1.40;;;;;;;18.85;43.47;103100.47;5022829;28;20046;-35
2023/05/03 07:27:43;;;;;;;1.83;1.00;;;;;;;18.83;43.62;103095.19;5024486;28;20053;-34
2023/05/03 07:30:10;;;;;;;2.33;1.40;;;;;;;18.82;43.55;103093.50;5022613;28;20458;-35
2023/05/03 07:32:36;;;;;;;3.40;1.10;;;;;;;18.82;43.49;103096.19;5024572;28;20050;-37
2023/05/03 07:35:04;;;;;;;2.55;1.10;;;;;;;18.82;43.52;103089.94;5019367;28;20057;-34
2023/05/03 07:37:31;;;;;;;2.95;1.38;;;;;;;18.81;43.66;103090.88;5020315;28;20046;-34
2023/05/03 07:39:57;;;;;;;2.47;1.10;;;;;;;18.81;43.08;103081.00;5020145;28;20456;-34
2023/05/03 07:42:24;;;;;;;2.65;1.27;;;;;;;18.81;43.39;103070.25;5019102;28;20049;-35
2023/05/03 07:44:51;;;;;;;2.35;1.30;;;;;;;18.82;43.59;103074.69;5020733;28;20164;-35
2023/05/03 07:47:18;;;;;;;3.75;1.30;;;;;;;18.80;43.33;103075.75;5018455;28;20496;-34
2023/05/03 07:49:46;;;;;;;3.33;1.17;;;;;;;18.81;43.52;103080.13;5020266;28;20385;-34
2023/05/03 07:52:13;;;;;;;4.75;1.42;;;;;;;18.81;43.54;103074.75;5021361;28;20053;-35
2023/05/03 07:54:41;;;;;;;2.70;1.20;;;;;;;18.80;43.51;103067.69;5025649;28;20050;-35
2023/05/03 07:57:08;;;;;;;2.10;1.20;;;;;;;18.81;42.92;103069.38;5024280;28;20054;-35
2023/05/03 07:59:34;;;;;;;1.95;1.20;;;;;;;18.81;43.38;103072.06;5024432;28;20045;-36
2023/05/03 08:02:01;;;;;;;3.33;1.48;;;;;;;18.81;43.19;103072.06;5022487;28;20388;-35
2023/05/03 08:04:28;;;;;;;3.33;1.27;;;;;;;18.80;43.33;103063.16;5025643;28;20485;-35
2023/05/03 08:06:55;;;;;;;3.72;1.17;;;;;;;18.80;42.97;103056.94;5026182;28;20289;-35
2023/05/03 08:09:22;;;;;;;1.77;1.10;;;;;;;18.80;43.48;103065.00;5024404;28;20445;-35
2023/05/03 08:11:49;;;;;;;2.85;1.35;;;;;;;18.79;43.33;103057.91;5023726;28;20050;-35
2023/05/03 08:14:16;;;;;;;2.70;1.00;;;;;;;18.78;43.19;103056.19;5022296;28;20100;-35
2023/05/03 08:16:42;;;;;;;2.90;1.42;;;;;;;18.78;43.46;103051.69;5027428;28;20051;-34
2023/05/03 08:19:09;;;;;;;1.85;1.00;;;;;;;18.77;43.05;103054.44;5021828;28;20406;-35
2023/05/03 08:21:36;;;;;;;3.47;1.38;;;;;;;18.77;43.16;103052.63;5021662;28;20050;-35
2023/05/03 08:24:04;;;;;;;3.38;1.10;;;;;;;18.78;42.88;103056.19;5024224;28;20132;-35
2023/05/03 08:26:32;;;;;;;2.33;1.00;;;;;;;18.78;42.93;103056.19;5022304;28;20050;-36
2023/05/03 08:28:59;;;;;;;2.47;1.10;;;;;;;18.78;42.80;103051.69;5023806;28;20055;-36
2023/05/03 08:31:26;;;;;;;3.92;1.17;;;;;;;18.79;42.92;103055.22;5023698;28;20463;-35
2023/05/03 08:33:53;;;;;;;2.20;1.08;;;;;;;18.79;42.54;103063.28;5020996;28;20055;-35
2023/05/03 08:36:20;;;;;;;3.70;1.30;;;;;;;18.79;42.79;103057.91;5019508;28;20350;-35
2023/05/03 08:38:46;;;;;;;2.10;1.48;;;;;;;18.79;43.30;103061.44;5022132;28;20115;-34
2023/05/03 08:41:24;;;;;;;2.35;1.20;;;;;;;18.79;43.28;103064.13;5021635;28;20052;-35
2023/05/03 08:43:53;;;;;;;1.88;0.90;;;;;;;18.80;43.03;103063.16;5027537;28;20053;-35
2023/05/03 08:46:20;;;;;;;1.75;1.08;;;;;;;18.82;42.85;103068.44;5021196;28;20045;-35
2023/05/03 08:48:48;;;;;;;3.03;1.13;;;;;;;18.83;42.92;103068.34;5018361;28;20061;-36
2023/05/03 08:51:19;;;;;;;3.83;1.02;;;;;;;18.84;43.14;103074.56;5021984;28;20046;-35
2023/05/03 08:53:46;;;;;;;2.13;1.20;;;;;;;18.85;43.02;103074.44;5029334;28;21235;-35
2023/05/03 08:56:29;;;;;;;3.47;1.27;;;;;;;18.88;43.10;103073.38;5028233;28;20055;-35
2023/05/03 08:58:56;;;;;;;2.13;0.95;;;;;;;18.89;43.33;103069.72;5025319;28;20049;-35
2023/05/03 09:01:22;;;;;;;1.65;0.98;;;;;;;18.91;42.63;103073.19;5027059;28;20412;-36
2023/05/03 09:03:50;;;;;;;3.08;1.23;;;;;;;18.94;42.83;103081.03;5027992;28;20731;-35
2023/05/03 09:06:25;;;;;;;1.63;0.90;;;;;;;18.96;43.02;103084.47;5024364;28;20049;-36
2023/05/03 09:08:52;;;;;;;2.30;0.90;;;;;;;18.99;43.20;103078.91;5027118;28;20136;-35
2023/05/03 09:11:23;;;;;;;2.97;1.20;;;;;;;19.01;42.94;103078.78;5025284;28;20064;-36
2023/05/03 09:13:51;;;;;;;3.75;1.20;;;;;;;19.04;43.19;103078.56;5020263;28;20058;-35
2023/05/03 09:16:28;;;;;;;2.30;1.10;;;;;;;19.07;43.38;103078.38;5025026;28;20060;-35
2023/05/03 09:19:00;;;;;;;1.45;0.98;;;;;;;19.10;43.50;103072.78;5021267;28;20053;-35
2023/05/03 09:21:28;;;;;;;1.33;0.80;;;;;;;19.14;43.00;103064.41;5039848;28;20128;-36
2023/05/03 09:23:54;;;;;;;3.10;1.20;;;;;;;19.16;43.43;103065.13;5027153;28;20045;-35
2023/05/03 09:26:32;;;;;;;2.42;1.20;;;;;;;19.19;42.92;103073.00;5026089;28;20322;-35
2023/05/03 09:29:03;;;;;;;2.35;0.93;;;;;;;19.24;43.62;103081.59;5019178;28;20057;-35
2023/05/03 09:31:32;;;;;;;2.78;1.05;;;;;;;19.30;43.34;103079.47;5023331;28;20091;-36
2023/05/03 09:33:59;;;;;;;2.08;1.10;;;;;;;19.34;43.74;103067.53;5022249;28;20070;-35
2023/05/03 09:36:26;;;;;;;2.78;1.30;;;;;;;19.40;43.91;103075.16;5019550;28;20430;-35
2023/05/03 09:38:54;;;;;;;4.47;1.50;;;;;;;19.43;44.00;103075.78;5020630;28;20045;-35
2023/05/03 09:41:28;;;;;;;1.98;1.13;;;;;;;19.48;43.86;103064.69;5022171;28;20487;-35
2023/05/03 09:43:55;;;;;;;5.35;1.38;;;;;;;19.54;43.69;103068.78;5019889;28;20081;-36
2023/05/03 09:46:23;;;;;;;6.22;2.03;;;;;;;19.60;44.15;103071.91;5021215;28;20054;-35
2023/05/03 09:48:54;;;;;;;8.77;2.03;;;;;;;19.64;45.06;103068.06;5023784;28;20057;-34
2023/05/03 09:51:24;;;;;;;10.77;2.70;;;;;;;19.69;44.99;103059.66;5023455;28;20042;-35
2023/05/03 09:53:50;;;;;;;6.43;1.90;;;;;;;19.73;45.02;103056.63;5024434;28;20053;-35
2023/05/03 09:56:19;;;;;;;7.38;2.03;;;;;;;19.78;44.88;103059.00;5023486;28;20448;-36
2023/05/03 09:58:46;;;;;;;6.35;2.20;;;;;;;19.83;44.97;103053.28;5023599;28;20107;-35
2023/05/03 10:01:14;;;;;;;6.47;2.35;;;;;;;19.87;45.16;103057.47;5025596;28;20235;-35
2023/05/03 10:03:49;;;;;;;6.30;2.95;;;;;;;19.91;44.89;103054.44;5023923;28;20049;-35
2023/05/03 10:06:22;;;;;;;4.00;1.95;;;;;;;19.96;45.29;103057.63;5022945;28;20396;-35
2023/05/03 10:08:55;;;;;;;7.40;1.65;;;;;;;19.99;44.86;103047.63;5015941;28;20468;-35
2023/05/03 10:11:25;;;;;;;5.68;1.88;;;;;;;20.03;44.89;103047.28;5018225;28;20129;-35
2023/05/03 10:13:54;;;;;;;6.32;2.17;;;;;;;20.05;44.74;103039.94;5020212;28;20049;-37
2023/05/03 10:16:29;;;;;;;3.67;1.70;;;;;;;20.09;44.81;103054.91;5024129;28;20049;-37
2023/05/03 10:19:10;;;;;;;5.85;2.10;;;;;;;20.12;45.21;103051.13;5020603;28;20378;-36
2023/05/03 10:21:50;;;;;;;7.20;2.00;;;;;;;20.15;44.65;103042.84;5025720;28;20432;-34
2023/05/03 10:24:16;;;;;;;5.22;1.90;;;;;;;20.18;44.68;103045.28;5022823;28;20514;-35
2023/05/03 10:26:46;;;;;;;4.90;2.05;;;;;;;20.20;45.01;103044.19;5021107;28;20108;-34
2023/05/03 10:29:44;;;;;;;5.70;1.85;;;;;;;20.22;45.17;103044.06;5020532;28;20042;-35
2023/05/03 10:32:31;;;;;;;4.25;1.55;;;;;;;20.26;45.17;103042.00;5023235;28;20049;-35
2023/05/03 10:35:06;;;;;;;3.72;1.95;;;;;;;20.29;44.95;103047.19;5022336;28;20155;-35
2023/05/03 10:37:35;;;;;;;4.35;1.77;;;;;;;20.31;44.59;103034.47;5024802;28;20061;-35
2023/05/03 10:40:06;;;;;;;6.30;1.70;;;;;;;20.33;44.92;103032.50;5020426;28;20063;-35
2023/05/03 10:42:33;;;;;;;6.28;2.00;;;;;;;20.34;45.04;103029.72;5025258;28;20152;-35
2023/05/03 10:45:00;;;;;;;4.93;1.90;;;;;;;20.37;45.03;103028.59;5024581;28;20494;-36
2023/05/03 10:47:28;;;;;;;4.30;1.88;;;;;;;20.38;44.86;103025.81;5024111;28;20052;-37
2023/05/03 10:50:10;;;;;;;4.22;1.67;;;;;;;20.40;44.84;103025.69;5020064;28;20053;-36
2023/05/03 10:52:37;;;;;;;5.10;1.92;;;;;;;20.43;45.09;103031.72;5021660;28;20049;-35
2023/05/03 10:55:23;;;;;;;5.45;1.58;;;;;;;20.44;44.79;103032.56;5020879;28;20381;-35
2023/05/03 10:57:53;;;;;;;6.05;1.65;;;;;;;20.48;44.91;103025.13;5020092;28;20110;-35
2023/05/03 11:00:49;;;;;;;3.30;1.50;;;;;;;20.48;45.00;103015.19;5021200;28;20049;-37
2023/05/03 11:03:37;;;;;;;3.60;2.15;;;;;;;20.52;44.87;103010.47;5021998;28;20060;-35
2023/05/03 11:06:04;;;;;;;4.50;2.28;;;;;;;20.54;44.65;103012.03;5023798;28;20077;-36
2023/05/03 11:08:36;;;;;;;3.22;1.73;;;;;;;20.56;44.54;102995.78;5019701;28;20115;-34
2023/05/03 11:11:08;;;;;;;2.58;1.40;;;;;;;20.58;44.60;102996.50;5020708;28;20099;-36
2023/05/03 11:13:35;;;;;;;4.70;1.70;;;;;;;20.60;44.49;102989.19;5019631;28;20478;-35
2023/05/03 11:16:04;;;;;;;3.28;1.50;;;;;;;20.61;44.90;102994.44;5020704;28;20046;-36
2023/05/03 11:18:32;;;;;;;4.25;1.80;;;;;;;20.63;44.81;102987.09;5016637;28;20063;-35
2023/05/03 11:20:58;;;;;;;3.28;1.30;;;;;;;20.65;44.30;102995.06;5020536;28;20057;-35
2023/05/03 11:23:27;;;;;;;4.22;1.38;;;;;;;20.67;44.37;102990.44;5024992;28;20046;-35
2023/05/03 11:25:56;;;;;;;4.53;1.65;;;;;;;20.67;44.01;102991.28;5020659;28;20053;-35
2023/05/03 11:28:24;;;;;;;6.32;1.73;;;;;;;20.69;43.95;102989.31;5017863;28;20393;-35
2023/05/03 11:30:51;;;;;;;2.90;1.40;;;;;;;20.72;44.56;102980.13;5015804;28;20447;-35